VHHH/HKG METAR and TAF weather

Enter ICAO airport designator
Station Type Date Time Source
VHHH METAR 2020/03/29 15:30 UTC NOAA

VHHH 291530Z 08016KT 9999 FEW009 SCT022 22/19 Q1012 NOSIG


Station Type Date Time Source
VHHH Decoded METAR 2020/03/29 15:30 UTC NOAA

Hong Kong Inter-National Airport, Hong Kong (VHHH) 22-20N 114-11E 24M
Mar 29, 2020 - 11:30 AM EDT / 2020.03.29 1530 UTC
Wind: from the E (080 degrees) at 18 MPH (16 KT):0
Visibility: greater than 7 mile(s):0
Sky conditions: partly cloudy
Temperature: 71 F (22 C)
Dew Point: 66 F (19 C)
Relative Humidity: 83%
Pressure (altimeter): 29.88 in. Hg (1012 hPa)
ob: VHHH 291530Z 08016KT 9999 FEW009 SCT022 22/19 Q1012 NOSIG
cycle: 15

Station Type Date Time Source
VHHH TAF 2020/03/29 12:21 UTC NOAA

TAF TAF VHHH 291100Z 2912/3018 09015KT 9000 FEW010 SCT030 TX26/3006Z TN21/2923Z

Example: see airport list